Aviation Digital Data Service (ADDS)

Output produced by METARs form (0456 UTC 16 February 2019)
found at http://www.aviationweather.gov/metar/data/
 
Forecast for: AGGC (CHOISEUL BAY , SB)
Text: TAF AGGC 152330Z 1600/1624 29015KT 9999 -SHRA SCT018 SCT030
Forecast period: 0000 UTC 16 February 2019 to 0000 UTC 17 February 2019
Forecast type: FROM: standard forecast or significant change
Winds: from the WNW (290 degrees) at 17 MPH (15 knots; 7.7 m/s)
Visibility: 6 or more miles 10+ km)
Ceiling: at least 12,000 feet AGL
Clouds: scattered clouds at 1800 feet AGL
scattered clouds at 3000 feet AGL
Weather: -SHRA  (light rain showers)
Text: PROB40 INTER 1600/1609 5000 TSSH BKN017 FEW018CB Q 1008 1006 1005 1007
Forecast period: 0000 to 0900 UTC 16 February 2019
Forecast type: TEMPORARY: The following changes expected for less than half the time period
Visibility: 3 miles (5 km)
Ceiling: 1700 feet AGL
Clouds: broken clouds at 1700 feet AGL
few clouds at 1800 feet AGL
Weather: SH TS  (showers, thunderstorm)